createdAt,value
2019-01-12T00:00:39.577Z,0
2019-01-12T00:01:42.004Z,0
2019-01-12T00:02:44.157Z,0
2019-01-12T00:03:46.306Z,0
2019-01-12T00:04:48.426Z,0
2019-01-12T00:05:50.554Z,0
2019-01-12T00:06:52.676Z,0
2019-01-12T00:07:54.823Z,0
2019-01-12T00:08:56.951Z,0
2019-01-12T00:09:59.077Z,0
2019-01-12T00:11:01.515Z,0
2019-01-12T00:12:03.642Z,0
2019-01-12T00:13:05.817Z,0
2019-01-12T00:14:08.234Z,0
2019-01-12T00:15:10.395Z,0
2019-01-12T00:16:12.819Z,0
2019-01-12T00:17:14.969Z,0
2019-01-12T00:18:17.100Z,0
2019-01-12T00:19:19.605Z,0
2019-01-12T00:20:21.707Z,0
2019-01-12T00:21:23.857Z,0
2019-01-12T00:22:26.023Z,0
2019-01-12T00:23:28.156Z,0
2019-01-12T00:24:33.407Z,0
2019-01-12T00:25:35.530Z,0
2019-01-12T00:26:37.648Z,0
2019-01-12T00:27:40.089Z,0
2019-01-12T00:28:42.221Z,0
2019-01-12T00:29:44.624Z,0
2019-01-12T00:30:46.763Z,0
2019-01-12T00:31:48.889Z,0
2019-01-12T00:32:51.029Z,0
2019-01-12T00:33:53.466Z,0
2019-01-12T00:34:58.227Z,0
2019-01-12T00:36:00.547Z,0
2019-01-12T00:37:02.976Z,0
2019-01-12T00:38:05.099Z,0
2019-01-12T00:39:07.237Z,0
2019-01-12T00:40:09.433Z,0
2019-01-12T00:41:11.566Z,0
2019-01-12T00:42:13.702Z,0
2019-01-12T00:43:16.124Z,0
2019-01-12T00:44:18.271Z,0
2019-01-12T00:45:20.706Z,0
2019-01-12T00:46:22.845Z,0
2019-01-12T00:47:25.021Z,0
2019-01-12T00:48:27.135Z,0
2019-01-12T00:49:29.286Z,0
2019-01-12T00:50:31.421Z,0
2019-01-12T00:51:33.560Z,0
2019-01-12T00:52:35.706Z,0
2019-01-12T00:53:37.847Z,0
2019-01-12T00:54:40.248Z,0
2019-01-12T00:55:42.679Z,0
2019-01-12T00:56:44.802Z,0
2019-01-12T00:57:46.930Z,0
2019-01-12T00:58:49.068Z,0
2019-01-12T00:59:51.472Z,0
2019-01-12T01:00:53.651Z,0
2019-01-12T01:01:56.044Z,0
2019-01-12T01:02:58.178Z,0
2019-01-12T01:04:00.298Z,0
2019-01-12T01:05:03.140Z,0
2019-01-12T01:06:05.267Z,0
2019-01-12T01:07:07.412Z,0
2019-01-12T01:08:09.535Z,0
2019-01-12T01:09:11.681Z,0
2019-01-12T01:10:13.800Z,0
2019-01-12T01:11:15.927Z,0
2019-01-12T01:12:18.031Z,0
2019-01-12T01:13:20.159Z,0
2019-01-12T01:14:22.289Z,0
2019-01-12T01:15:24.416Z,0
2019-01-12T01:16:26.554Z,0
2019-01-12T01:17:28.687Z,0
2019-01-12T01:18:31.473Z,0
2019-01-12T01:19:33.667Z,0
2019-01-12T01:20:35.797Z,0
2019-01-12T01:21:37.948Z,0
2019-01-12T01:22:40.071Z,0
2019-01-12T01:23:42.218Z,0
2019-01-12T01:24:47.599Z,0
2019-01-12T01:25:49.735Z,0
2019-01-12T01:26:51.851Z,0
2019-01-12T01:27:54.001Z,0
2019-01-12T01:28:56.145Z,0
2019-01-12T01:29:58.273Z,0
2019-01-12T01:31:00.705Z,0
2019-01-12T01:32:02.841Z,0
2019-01-12T01:33:04.967Z,0
2019-01-12T01:34:07.394Z,0
2019-01-12T01:35:09.531Z,0
2019-01-12T01:36:11.991Z,0
2019-01-12T01:37:14.117Z,0
2019-01-12T01:38:16.259Z,0
2019-01-12T01:39:18.398Z,0
2019-01-12T01:40:20.549Z,0
2019-01-12T01:41:22.717Z,0
2019-01-12T01:42:24.831Z,0
2019-01-12T01:43:26.962Z,0
2019-01-12T01:44:29.107Z,0
2019-01-12T01:45:31.244Z,0
2019-01-12T01:46:33.442Z,0
2019-01-12T01:47:35.586Z,0
2019-01-12T01:48:37.735Z,0
2019-01-12T01:49:39.868Z,0
2019-01-12T01:50:42.407Z,0
2019-01-12T01:51:44.562Z,0
2019-01-12T01:52:48.298Z,0
2019-01-12T01:53:50.627Z,0
2019-01-12T01:54:54.384Z,0
2019-01-12T01:55:56.797Z,0
2019-01-12T01:56:58.944Z,0
2019-01-12T01:58:01.089Z,0
2019-01-12T01:59:03.229Z,0
2019-01-12T02:00:05.363Z,0
2019-01-12T02:01:07.786Z,0
2019-01-12T02:02:09.898Z,0
2019-01-12T02:03:12.032Z,0
2019-01-12T02:04:14.180Z,0
2019-01-12T02:05:16.615Z,0
2019-01-12T02:06:18.735Z,0
2019-01-12T02:07:20.842Z,0
2019-01-12T02:08:23.255Z,0
2019-01-12T02:09:25.707Z,0
2019-01-12T02:10:27.846Z,0
2019-01-12T02:11:30.266Z,0
2019-01-12T02:12:32.408Z,0
2019-01-12T02:13:34.550Z,0
2019-01-12T02:14:37.084Z,0
2019-01-12T02:15:39.223Z,0
2019-01-12T02:16:41.340Z,0
2019-01-12T02:17:43.743Z,0
2019-01-12T02:18:45.888Z,0
2019-01-12T02:19:48.016Z,0
2019-01-12T02:20:50.163Z,0
2019-01-12T02:21:52.329Z,0
2019-01-12T02:22:54.447Z,0
2019-01-12T02:23:56.562Z,0
2019-01-12T02:25:01.572Z,0
2019-01-12T02:26:03.714Z,0
2019-01-12T02:27:05.856Z,0
2019-01-12T02:28:07.962Z,0
2019-01-12T02:29:10.106Z,0
2019-01-12T02:30:12.572Z,0
2019-01-12T02:31:14.722Z,0
2019-01-12T02:32:16.880Z,0
2019-01-12T02:33:19.030Z,0
2019-01-12T02:34:21.185Z,0
2019-01-12T02:35:23.331Z,0
2019-01-12T02:36:25.463Z,0
2019-01-12T02:37:27.960Z,0
2019-01-12T02:38:30.086Z,0
2019-01-12T02:39:32.484Z,0
2019-01-12T02:40:34.627Z,0
2019-01-12T02:41:36.742Z,0
2019-01-12T02:42:39.526Z,0
2019-01-12T02:43:41.952Z,0
2019-01-12T02:44:44.698Z,0
2019-01-12T02:45:47.131Z,0
2019-01-12T02:46:49.271Z,0
2019-01-12T02:47:51.425Z,0
2019-01-12T02:48:53.566Z,0
2019-01-12T02:49:55.688Z,0
2019-01-12T02:50:57.846Z,0
2019-01-12T02:51:59.987Z,0
2019-01-12T02:53:02.151Z,0
2019-01-12T02:54:04.286Z,0
2019-01-12T02:55:11.142Z,0
2019-01-12T02:56:13.573Z,0
2019-01-12T02:57:16.034Z,0
2019-01-12T02:58:20.200Z,0
2019-01-12T02:59:22.342Z,0
2019-01-12T03:00:24.503Z,0
2019-01-12T03:01:26.928Z,0
2019-01-12T03:02:29.066Z,0
2019-01-12T03:03:31.204Z,0
2019-01-12T03:04:33.328Z,0
2019-01-12T03:05:35.463Z,0
2019-01-12T03:06:37.863Z,0
2019-01-12T03:07:40.030Z,0
2019-01-12T03:08:42.152Z,0
2019-01-12T03:09:44.301Z,0
2019-01-12T03:10:46.441Z,0
2019-01-12T03:11:48.979Z,0
2019-01-12T03:12:51.096Z,0
2019-01-12T03:13:53.519Z,0
2019-01-12T03:14:55.677Z,0
2019-01-12T03:15:58.210Z,0
2019-01-12T03:17:00.628Z,0
2019-01-12T03:18:03.224Z,0
2019-01-12T03:19:05.675Z,0
2019-01-12T03:20:08.680Z,0
2019-01-12T03:21:11.242Z,0
2019-01-12T03:22:13.396Z,0
2019-01-12T03:23:15.513Z,0
2019-01-12T03:24:17.670Z,0
2019-01-12T03:25:21.259Z,0
2019-01-12T03:26:23.414Z,0
2019-01-12T03:27:25.590Z,0
2019-01-12T03:28:27.743Z,0
2019-01-12T03:29:30.259Z,0
2019-01-12T03:30:32.835Z,0
2019-01-12T03:31:35.009Z,0
2019-01-12T03:32:37.192Z,0
2019-01-12T03:33:39.602Z,0
2019-01-12T03:34:41.736Z,0
2019-01-12T03:35:43.871Z,0
2019-01-12T03:36:46.426Z,0
2019-01-12T03:37:48.893Z,0
2019-01-12T03:38:51.085Z,0
2019-01-12T03:39:53.915Z,0
2019-01-12T03:40:56.040Z,0
2019-01-12T03:41:58.450Z,0
2019-01-12T03:43:00.874Z,0
2019-01-12T03:44:03.449Z,0
2019-01-12T03:45:05.603Z,0
2019-01-12T03:46:07.748Z,0
2019-01-12T03:47:10.608Z,0
2019-01-12T03:48:13.308Z,0
2019-01-12T03:49:15.418Z,0
2019-01-12T03:50:17.919Z,0
2019-01-12T03:51:20.448Z,0
2019-01-12T03:52:22.598Z,0
2019-01-12T03:53:25.427Z,0
2019-01-12T03:54:27.856Z,0
2019-01-12T03:55:30.023Z,0
2019-01-12T03:56:32.157Z,0
2019-01-12T03:57:34.285Z,0
2019-01-12T03:58:36.443Z,0
2019-01-12T03:59:38.590Z,0
2019-01-12T04:00:41.034Z,0
2019-01-12T04:01:43.440Z,0
2019-01-12T04:02:45.871Z,0
2019-01-12T04:03:48.012Z,0
2019-01-12T04:04:50.544Z,0
2019-01-12T04:05:52.689Z,0
2019-01-12T04:06:54.841Z,0
2019-01-12T04:07:57.278Z,0
2019-01-12T04:08:59.436Z,0
2019-01-12T04:10:01.919Z,0
2019-01-12T04:11:04.369Z,0
2019-01-12T04:12:06.776Z,0
2019-01-12T04:13:08.918Z,0
2019-01-12T04:14:11.057Z,0
2019-01-12T04:15:13.203Z,0
2019-01-12T04:16:15.354Z,0
2019-01-12T04:17:17.493Z,0
2019-01-12T04:18:19.628Z,0
2019-01-12T04:19:21.758Z,0
2019-01-12T04:20:23.910Z,0
2019-01-12T04:21:26.683Z,0
2019-01-12T04:22:28.819Z,0
2019-01-12T04:23:30.974Z,0
2019-01-12T04:24:33.125Z,0
2019-01-12T04:25:35.926Z,0
2019-01-12T04:26:38.132Z,0
2019-01-12T04:27:40.274Z,0
2019-01-12T04:28:42.395Z,0
2019-01-12T04:29:44.520Z,0
2019-01-12T04:30:46.653Z,0
2019-01-12T04:31:48.803Z,0
2019-01-12T04:32:51.218Z,0
2019-01-12T04:33:53.664Z,0
2019-01-12T04:34:55.809Z,0
2019-01-12T04:35:57.934Z,0
2019-01-12T04:37:00.077Z,0
2019-01-12T04:38:02.206Z,0
2019-01-12T04:39:04.623Z,0
2019-01-12T04:40:06.750Z,0
2019-01-12T04:41:09.201Z,0
2019-01-12T04:42:11.627Z,0
2019-01-12T04:43:13.786Z,0
2019-01-12T04:44:15.919Z,0
2019-01-12T04:45:18.057Z,0
2019-01-12T04:46:20.222Z,0
2019-01-12T04:47:23.037Z,0
2019-01-12T04:48:25.201Z,0
2019-01-12T04:49:27.387Z,0
2019-01-12T04:50:29.527Z,0
2019-01-12T04:51:31.686Z,0
2019-01-12T04:52:34.232Z,0
2019-01-12T04:53:36.383Z,0
2019-01-12T04:54:38.817Z,0
2019-01-12T04:55:43.051Z,0
2019-01-12T04:56:45.194Z,0
2019-01-12T04:57:47.623Z,0
2019-01-12T04:58:49.788Z,0
2019-01-12T04:59:52.228Z,0
2019-01-12T05:00:54.671Z,0
2019-01-12T05:01:56.819Z,0
2019-01-12T05:02:58.948Z,0
2019-01-12T05:04:01.370Z,0
2019-01-12T05:05:04.199Z,0
2019-01-12T05:06:06.344Z,0
2019-01-12T05:07:08.499Z,0
2019-01-12T05:08:10.616Z,0
2019-01-12T05:09:12.764Z,0
2019-01-12T05:10:15.209Z,0
2019-01-12T05:11:17.359Z,0
2019-01-12T05:12:19.505Z,0
2019-01-12T05:13:21.623Z,0
2019-01-12T05:14:23.782Z,0
2019-01-12T05:15:26.337Z,0
2019-01-12T05:16:28.472Z,0
2019-01-12T05:17:30.669Z,0
2019-01-12T05:18:32.806Z,0
2019-01-12T05:19:35.318Z,0
2019-01-12T05:20:37.464Z,0
2019-01-12T05:21:39.603Z,0
2019-01-12T05:22:41.770Z,0
2019-01-12T05:23:43.916Z,0
2019-01-12T05:24:46.081Z,0
2019-01-12T05:25:50.693Z,0
2019-01-12T05:26:52.832Z,0
2019-01-12T05:27:54.991Z,0
2019-01-12T05:28:57.421Z,0
2019-01-12T05:29:59.554Z,0
2019-01-12T05:31:01.684Z,0
2019-01-12T05:32:03.854Z,0
2019-01-12T05:33:05.992Z,0
2019-01-12T05:34:08.132Z,0
2019-01-12T05:35:10.678Z,0
2019-01-12T05:36:13.619Z,0
2019-01-12T05:37:15.746Z,0
2019-01-12T05:38:17.880Z,0
2019-01-12T05:39:20.012Z,0
2019-01-12T05:40:22.155Z,0
2019-01-12T05:41:24.297Z,0
2019-01-12T05:42:26.733Z,0
2019-01-12T05:43:29.532Z,0
2019-01-12T05:44:31.658Z,0
2019-01-12T05:45:34.179Z,0
2019-01-12T05:46:36.605Z,0
2019-01-12T05:47:38.757Z,0
2019-01-12T05:48:41.169Z,0
2019-01-12T05:49:43.301Z,0
2019-01-12T05:50:45.441Z,0
2019-01-12T05:51:48.126Z,0
2019-01-12T05:52:50.261Z,0
2019-01-12T05:53:52.393Z,0
2019-01-12T05:54:54.544Z,0
2019-01-12T05:56:00.425Z,0
2019-01-12T05:57:03.549Z,0
2019-01-12T05:58:05.984Z,0
2019-01-12T05:59:08.507Z,0
2019-01-12T06:00:10.646Z,0
2019-01-12T06:01:12.775Z,0
2019-01-12T06:02:14.918Z,0
2019-01-12T06:03:17.066Z,0
2019-01-12T06:04:19.240Z,0
2019-01-12T06:05:21.377Z,0
2019-01-12T06:06:23.576Z,0
2019-01-12T06:07:25.725Z,0
2019-01-12T06:08:28.183Z,0
2019-01-12T06:09:30.890Z,0
2019-01-12T06:10:33.020Z,0
2019-01-12T06:11:35.158Z,0
2019-01-12T06:12:37.363Z,0
2019-01-12T06:13:39.487Z,0
2019-01-12T06:14:41.623Z,0
2019-01-12T06:15:44.028Z,0
2019-01-12T06:16:46.163Z,0
2019-01-12T06:17:48.582Z,0
2019-01-12T06:18:50.696Z,0
2019-01-12T06:19:52.836Z,0
2019-01-12T06:20:54.952Z,0
2019-01-12T06:21:57.073Z,0
2019-01-12T06:22:59.201Z,0
2019-01-12T06:24:01.379Z,0
2019-01-12T06:25:04.134Z,0
2019-01-12T06:26:06.290Z,0
2019-01-12T06:27:08.825Z,0
2019-01-12T06:28:10.945Z,0
2019-01-12T06:29:13.087Z,0
2019-01-12T06:30:15.217Z,0
2019-01-12T06:31:17.368Z,0
2019-01-12T06:32:19.503Z,0
2019-01-12T06:33:21.653Z,0
2019-01-12T06:34:23.784Z,0
2019-01-12T06:35:25.950Z,0
2019-01-12T06:36:29.102Z,0
2019-01-12T06:37:31.278Z,0
2019-01-12T06:38:33.690Z,0
2019-01-12T06:39:35.821Z,0
2019-01-12T06:40:37.989Z,0
2019-01-12T06:41:40.126Z,0
2019-01-12T06:42:42.647Z,0
2019-01-12T06:43:44.773Z,0
2019-01-12T06:44:47.460Z,0
2019-01-12T06:45:49.595Z,0
2019-01-12T06:46:51.718Z,0
2019-01-12T06:47:53.852Z,0
2019-01-12T06:48:55.971Z,0
2019-01-12T06:49:58.104Z,0
2019-01-12T06:51:00.241Z,0
2019-01-12T06:52:02.770Z,0
2019-01-12T06:53:04.901Z,0
2019-01-12T06:54:07.422Z,0
2019-01-12T06:55:10.146Z,0
2019-01-12T06:56:12.473Z,0
2019-01-12T06:57:14.594Z,0
2019-01-12T06:58:16.719Z,0
2019-01-12T06:59:18.859Z,0
2019-01-12T07:00:21.376Z,0
2019-01-12T07:01:23.516Z,0
2019-01-12T07:02:25.646Z,0
2019-01-12T07:03:27.798Z,0
2019-01-12T07:04:29.943Z,0
2019-01-12T07:05:32.369Z,0
2019-01-12T07:06:34.486Z,0
2019-01-12T07:07:36.596Z,0
2019-01-12T07:08:38.735Z,0
2019-01-12T07:09:40.863Z,0
2019-01-12T07:10:42.993Z,0
2019-01-12T07:11:45.122Z,0
2019-01-12T07:12:47.650Z,0
2019-01-12T07:13:49.799Z,0
2019-01-12T07:14:52.228Z,0
2019-01-12T07:15:54.668Z,0
2019-01-12T07:16:56.809Z,0
2019-01-12T07:17:58.972Z,0
2019-01-12T07:19:01.115Z,0
2019-01-12T07:20:03.527Z,0
2019-01-12T07:21:05.676Z,0
2019-01-12T07:22:07.794Z,0
2019-01-12T07:23:09.909Z,0
2019-01-12T07:24:12.346Z,0
2019-01-12T07:25:14.741Z,0
2019-01-12T07:26:19.040Z,0
2019-01-12T07:27:21.177Z,0
2019-01-12T07:28:23.593Z,0
2019-01-12T07:29:25.806Z,0
2019-01-12T07:30:27.957Z,0
2019-01-12T07:31:30.113Z,0
2019-01-12T07:32:32.259Z,0
2019-01-12T07:33:34.396Z,0
2019-01-12T07:34:36.531Z,0
2019-01-12T07:35:39.046Z,0
2019-01-12T07:36:41.164Z,1
2019-01-12T07:37:43.367Z,1
2019-01-12T07:38:45.883Z,1
2019-01-12T07:39:48.021Z,1
2019-01-12T07:40:50.437Z,1
2019-01-12T07:41:52.579Z,1
2019-01-12T07:42:54.720Z,1
2019-01-12T07:43:56.861Z,1
2019-01-12T07:44:59.011Z,1
2019-01-12T07:46:01.137Z,1
2019-01-12T07:47:03.549Z,1
2019-01-12T07:48:05.674Z,1
2019-01-12T07:49:07.803Z,1
2019-01-12T07:50:10.683Z,1
2019-01-12T07:51:13.209Z,1
2019-01-12T07:52:15.325Z,1
2019-01-12T07:53:17.471Z,1
2019-01-12T07:54:19.596Z,2
2019-01-12T07:55:21.741Z,2
2019-01-12T07:56:26.037Z,3
2019-01-12T07:57:28.162Z,3
2019-01-12T07:58:30.291Z,3
2019-01-12T07:59:32.430Z,3
2019-01-12T08:00:34.587Z,3
2019-01-12T08:01:36.803Z,4
2019-01-12T08:02:38.928Z,3
2019-01-12T08:03:41.070Z,3
2019-01-12T08:04:43.216Z,4
2019-01-12T08:05:45.333Z,4
2019-01-12T08:06:47.467Z,4
2019-01-12T08:07:49.586Z,4
2019-01-12T08:08:51.737Z,4
2019-01-12T08:09:53.881Z,4
2019-01-12T08:10:56.011Z,5
2019-01-12T08:11:58.527Z,5
2019-01-12T08:13:00.673Z,5
2019-01-12T08:14:02.815Z,5
2019-01-12T08:15:05.230Z,5
2019-01-12T08:16:07.354Z,5
2019-01-12T08:17:11.013Z,6
2019-01-12T08:18:13.133Z,5
2019-01-12T08:19:15.285Z,5
2019-01-12T08:20:17.476Z,4
2019-01-12T08:21:19.595Z,4
2019-01-12T08:22:22.008Z,4
2019-01-12T08:23:24.135Z,4
2019-01-12T08:24:26.284Z,5
2019-01-12T08:25:28.426Z,5
2019-01-12T08:26:32.653Z,6
2019-01-12T08:27:34.806Z,6
2019-01-12T08:28:36.955Z,6
2019-01-12T08:29:39.088Z,6
2019-01-12T08:30:41.531Z,7
2019-01-12T08:31:43.660Z,8
2019-01-12T08:32:45.796Z,8
2019-01-12T08:33:48.202Z,7
2019-01-12T08:34:50.598Z,8
2019-01-12T08:35:52.721Z,9
2019-01-12T08:36:54.858Z,9
2019-01-12T08:37:56.990Z,10
2019-01-12T08:38:59.140Z,10
2019-01-12T08:40:01.295Z,10
2019-01-12T08:41:03.442Z,9
2019-01-12T08:42:05.624Z,9
2019-01-12T08:43:07.735Z,8
2019-01-12T08:44:09.866Z,7
2019-01-12T08:45:12.002Z,7
2019-01-12T08:46:14.117Z,8
2019-01-12T08:47:16.253Z,8
2019-01-12T08:48:18.399Z,7
2019-01-12T08:49:20.529Z,6
2019-01-12T08:50:22.717Z,6
2019-01-12T08:51:24.863Z,7
2019-01-12T08:52:27.007Z,8
2019-01-12T08:53:29.458Z,8
2019-01-12T08:54:31.585Z,9
2019-01-12T08:55:33.738Z,9
2019-01-12T08:56:40.778Z,9
2019-01-12T08:57:42.929Z,11
2019-01-12T08:58:45.640Z,11
2019-01-12T08:59:47.758Z,13
2019-01-12T09:00:50.162Z,13
2019-01-12T09:01:52.325Z,12
2019-01-12T09:02:54.480Z,10
2019-01-12T09:03:56.603Z,9
2019-01-12T09:04:58.726Z,12
2019-01-12T09:06:00.872Z,14
2019-01-12T09:07:03.357Z,12
2019-01-12T09:08:05.459Z,11
2019-01-12T09:09:07.591Z,14
2019-01-12T09:10:09.730Z,13
2019-01-12T09:11:11.929Z,13
2019-01-12T09:12:14.079Z,15
2019-01-12T09:13:16.235Z,15
2019-01-12T09:14:18.394Z,13
2019-01-12T09:15:20.514Z,15
2019-01-12T09:16:22.654Z,20
2019-01-12T09:17:24.803Z,21
2019-01-12T09:18:26.925Z,21
2019-01-12T09:19:29.053Z,21
2019-01-12T09:20:31.221Z,26
2019-01-12T09:21:33.340Z,24
2019-01-12T09:22:35.754Z,26
2019-01-12T09:23:37.892Z,29
2019-01-12T09:24:40.016Z,28
2019-01-12T09:25:42.217Z,33
2019-01-12T09:26:47.014Z,31
2019-01-12T09:27:49.546Z,28
2019-01-12T09:28:51.690Z,32
2019-01-12T09:29:53.840Z,35
2019-01-12T09:30:56.271Z,35
2019-01-12T09:31:58.402Z,35
2019-01-12T09:33:00.530Z,30
2019-01-12T09:34:02.663Z,30
2019-01-12T09:35:04.802Z,25
2019-01-12T09:36:06.944Z,23
2019-01-12T09:37:09.108Z,23
2019-01-12T09:38:11.266Z,19
2019-01-12T09:39:13.397Z,15
2019-01-12T09:40:15.576Z,15
2019-01-12T09:41:17.721Z,17
2019-01-12T09:42:19.854Z,12
2019-01-12T09:43:21.989Z,12
2019-01-12T09:44:24.111Z,13
2019-01-12T09:45:26.255Z,12
2019-01-12T09:46:28.384Z,12
2019-01-12T09:48:34.927Z,13
2019-01-12T09:49:36.973Z,12
2019-01-12T09:50:39.022Z,11
2019-01-12T09:51:41.055Z,8
2019-01-12T09:52:43.105Z,9
2019-01-12T09:53:45.137Z,10
2019-01-12T09:54:47.168Z,10
2019-01-12T09:55:49.216Z,12
2019-01-12T09:56:53.244Z,13
2019-01-12T09:57:55.557Z,14
2019-01-12T09:58:57.610Z,18
2019-01-12T09:59:59.670Z,20
2019-01-12T10:01:01.715Z,21
2019-01-12T10:02:03.753Z,23
2019-01-12T10:03:05.798Z,18
2019-01-12T10:04:07.849Z,13
2019-01-12T10:05:11.123Z,10
2019-01-12T10:06:13.190Z,11
2019-01-12T10:07:15.236Z,17
2019-01-12T10:08:17.295Z,20
2019-01-12T10:09:19.336Z,16
2019-01-12T10:10:21.399Z,12
2019-01-12T10:11:23.448Z,10
2019-01-12T10:12:25.527Z,10
2019-01-12T10:13:27.563Z,12
2019-01-12T10:14:29.654Z,10
2019-01-12T10:15:31.694Z,12
2019-01-12T10:16:33.756Z,11
2019-01-12T10:17:35.805Z,14
2019-01-12T10:18:37.884Z,14
2019-01-12T10:19:40.213Z,13
2019-01-12T10:20:42.257Z,16
2019-01-12T10:21:44.282Z,17
2019-01-12T10:22:46.619Z,15
2019-01-12T10:23:48.657Z,11
2019-01-12T10:24:50.986Z,10
2019-01-12T10:25:53.032Z,10
2019-01-12T10:26:59.899Z,13
2019-01-12T10:28:01.950Z,18
2019-01-12T10:29:04.000Z,20
2019-01-12T10:30:07.112Z,16
2019-01-12T10:31:09.248Z,12
2019-01-12T10:32:11.360Z,12
2019-01-12T10:33:13.418Z,12
2019-01-12T10:34:15.540Z,12
2019-01-12T10:35:17.666Z,13
2019-01-12T10:36:19.906Z,14
2019-01-12T10:37:21.992Z,15
2019-01-12T10:38:24.047Z,18
2019-01-12T10:39:26.369Z,22
2019-01-12T10:40:28.424Z,25
2019-01-12T10:41:30.473Z,25
2019-01-12T10:42:32.524Z,24
2019-01-12T10:43:34.609Z,24
2019-01-12T10:44:36.662Z,25
2019-01-12T10:45:38.722Z,23
2019-01-12T10:46:40.772Z,23
2019-01-12T10:47:42.830Z,24
2019-01-12T10:48:44.871Z,22
2019-01-12T10:49:46.898Z,19
2019-01-12T10:50:48.945Z,15
2019-01-12T10:51:50.995Z,14
2019-01-12T10:52:53.054Z,13
2019-01-12T10:53:55.100Z,12
2019-01-12T10:54:57.131Z,13
2019-01-12T10:55:59.174Z,11
2019-01-12T10:57:07.815Z,12
2019-01-12T10:58:10.914Z,11
2019-01-12T10:59:12.937Z,13
2019-01-12T11:00:14.987Z,13
2019-01-12T11:01:17.041Z,11
2019-01-12T11:02:19.090Z,9
2019-01-12T11:03:21.405Z,10
2019-01-12T11:04:23.452Z,11
2019-01-12T11:05:25.511Z,10
2019-01-12T11:06:27.557Z,9
2019-01-12T11:07:29.603Z,9
2019-01-12T11:08:31.650Z,9
2019-01-12T11:09:33.699Z,9
2019-01-12T11:10:35.732Z,9
2019-01-12T11:11:38.064Z,10
2019-01-12T11:12:40.108Z,11
2019-01-12T11:13:42.150Z,9
2019-01-12T11:14:44.210Z,10
2019-01-12T11:15:46.270Z,9
2019-01-12T11:16:48.298Z,9
2019-01-12T11:17:50.339Z,8
2019-01-12T11:18:52.667Z,9
2019-01-12T11:19:55.268Z,8
2019-01-12T11:20:57.693Z,9
2019-01-12T11:21:59.748Z,9
2019-01-12T11:23:02.195Z,9
2019-01-12T11:24:04.242Z,10
2019-01-12T11:25:06.290Z,9
2019-01-12T11:26:08.342Z,10
2019-01-12T11:27:13.689Z,10
2019-01-12T11:28:15.736Z,10
2019-01-12T11:29:18.165Z,10
2019-01-12T11:30:20.212Z,10
2019-01-12T11:31:22.255Z,8
2019-01-12T11:32:24.300Z,7
2019-01-12T11:33:26.346Z,7
2019-01-12T11:34:28.391Z,6
2019-01-12T11:35:30.434Z,7
2019-01-12T11:36:32.506Z,7
2019-01-12T11:37:35.136Z,6
2019-01-12T11:38:37.178Z,7
2019-01-12T11:39:39.246Z,7
2019-01-12T11:40:41.337Z,7
2019-01-12T11:41:43.378Z,8
2019-01-12T11:42:45.686Z,8
2019-01-12T11:43:47.738Z,8
2019-01-12T11:44:50.104Z,9
2019-01-12T11:45:52.196Z,9
2019-01-12T11:46:54.244Z,8
2019-01-12T11:47:56.318Z,8
2019-01-12T11:48:58.356Z,8
2019-01-12T11:50:00.453Z,7
2019-01-12T11:51:02.505Z,6
2019-01-12T11:52:04.549Z,6
2019-01-12T11:53:06.606Z,6
2019-01-12T11:54:08.643Z,7
2019-01-12T11:55:10.692Z,7
2019-01-12T11:56:12.724Z,6
2019-01-12T11:57:20.782Z,6
2019-01-12T11:58:22.827Z,5
2019-01-12T11:59:24.865Z,5
2019-01-12T12:00:27.181Z,5
2019-01-12T12:01:29.258Z,5
2019-01-12T12:02:38.194Z,5
2019-01-12T12:03:40.240Z,5
2019-01-12T12:04:42.280Z,6
2019-01-12T12:05:44.353Z,7
2019-01-12T12:06:46.403Z,6
2019-01-12T12:07:48.444Z,8
2019-01-12T12:08:50.491Z,7
2019-01-12T12:09:52.530Z,7
2019-01-12T12:10:54.575Z,7
2019-01-12T12:11:56.911Z,8
2019-01-12T12:12:59.360Z,8
2019-01-12T12:14:01.790Z,9
2019-01-12T12:15:03.847Z,8
2019-01-12T12:16:07.460Z,9
2019-01-12T12:17:09.619Z,8
2019-01-12T12:18:11.655Z,8
2019-01-12T12:19:13.696Z,7
2019-01-12T12:20:15.765Z,7
2019-01-12T12:21:17.811Z,7
2019-01-12T12:22:19.877Z,7
2019-01-12T12:23:21.927Z,7
2019-01-12T12:24:24.294Z,7
2019-01-12T12:25:26.342Z,8
2019-01-12T12:26:28.382Z,8
2019-01-12T12:27:30.436Z,8
2019-01-12T12:28:32.520Z,9
2019-01-12T12:29:34.543Z,8
2019-01-12T12:30:36.577Z,9
2019-01-12T12:31:38.602Z,8
2019-01-12T12:32:40.927Z,8
2019-01-12T12:33:42.953Z,8
2019-01-12T12:34:45.291Z,8
2019-01-12T12:35:47.322Z,9
2019-01-12T12:36:51.094Z,10
2019-01-12T12:37:54.082Z,9
2019-01-12T12:38:56.502Z,9
2019-01-12T12:39:58.548Z,9
2019-01-12T12:41:00.884Z,8
2019-01-12T12:42:02.942Z,8
2019-01-12T12:43:05.019Z,8
2019-01-12T12:44:07.068Z,8
2019-01-12T12:45:09.110Z,8
2019-01-12T12:46:11.173Z,8
2019-01-12T12:47:13.227Z,9
2019-01-12T12:48:15.261Z,9
2019-01-12T12:49:17.343Z,9
2019-01-12T12:50:19.412Z,10
2019-01-12T12:51:21.472Z,10
2019-01-12T12:52:23.910Z,9
2019-01-12T12:53:26.305Z,9
2019-01-12T12:54:28.420Z,8
2019-01-12T12:55:30.481Z,8
2019-01-12T12:56:32.540Z,7
2019-01-12T12:57:34.629Z,7
2019-01-12T12:58:36.678Z,8
2019-01-12T12:59:38.730Z,7
2019-01-12T13:00:40.792Z,8
2019-01-12T13:01:44.342Z,7
2019-01-12T13:02:46.390Z,7
2019-01-12T13:03:48.432Z,7
2019-01-12T13:04:50.467Z,7
2019-01-12T13:05:52.505Z,7
2019-01-12T13:06:54.550Z,7
2019-01-12T13:07:56.596Z,7
2019-01-12T13:08:58.658Z,6
2019-01-12T13:10:00.858Z,6
2019-01-12T13:11:02.893Z,7
2019-01-12T13:12:04.991Z,6
2019-01-12T13:13:07.056Z,7
2019-01-12T13:14:09.095Z,6
2019-01-12T13:15:12.031Z,6
2019-01-12T13:16:14.075Z,6
2019-01-12T13:17:16.151Z,6
2019-01-12T13:18:18.207Z,6
2019-01-12T13:19:20.255Z,7
2019-01-12T13:20:22.612Z,6
2019-01-12T13:21:24.639Z,7
2019-01-12T13:22:26.698Z,7
2019-01-12T13:23:28.786Z,6
2019-01-12T13:24:30.832Z,6
2019-01-12T13:25:32.863Z,5
2019-01-12T13:26:34.892Z,5
2019-01-12T13:27:41.237Z,6
2019-01-12T13:28:43.289Z,5
2019-01-12T13:29:45.322Z,5
2019-01-12T13:30:47.384Z,5
2019-01-12T13:31:49.417Z,4
2019-01-12T13:32:51.474Z,5
2019-01-12T13:33:53.507Z,4
2019-01-12T13:34:55.546Z,4
2019-01-12T13:35:57.594Z,3
2019-01-12T13:37:00.029Z,4
2019-01-12T13:38:02.670Z,5
2019-01-12T13:39:04.707Z,5
2019-01-12T13:40:06.746Z,8
2019-01-12T13:41:08.799Z,9
2019-01-12T13:42:10.851Z,7
2019-01-12T13:43:12.901Z,6
2019-01-12T13:44:14.943Z,5
2019-01-12T13:45:16.980Z,4
2019-01-12T13:46:19.392Z,4
2019-01-12T13:47:22.305Z,4
2019-01-12T13:48:24.332Z,4
2019-01-12T13:49:26.369Z,3
2019-01-12T13:50:28.815Z,3
2019-01-12T13:51:31.135Z,3
2019-01-12T13:52:33.163Z,3
2019-01-12T13:53:35.231Z,2
2019-01-12T13:54:37.342Z,2
2019-01-12T13:55:39.409Z,3
2019-01-12T13:56:41.448Z,3
2019-01-12T13:57:49.583Z,2
2019-01-12T13:58:51.692Z,2
2019-01-12T13:59:53.792Z,2
2019-01-12T14:00:56.119Z,2
2019-01-12T14:01:58.286Z,2
2019-01-12T14:03:02.159Z,2
2019-01-12T14:04:04.246Z,2
2019-01-12T14:05:06.291Z,3
2019-01-12T14:06:08.334Z,5
2019-01-12T14:07:10.393Z,5
2019-01-12T14:08:12.427Z,5
2019-01-12T14:09:14.458Z,5
2019-01-12T14:10:16.502Z,3
2019-01-12T14:11:18.559Z,3
2019-01-12T14:12:20.597Z,3
2019-01-12T14:13:22.634Z,2
2019-01-12T14:14:24.683Z,2
2019-01-12T14:15:26.726Z,1
2019-01-12T14:16:28.773Z,2
2019-01-12T14:17:30.838Z,1
2019-01-12T14:18:32.892Z,2
2019-01-12T14:19:34.940Z,2
2019-01-12T14:20:36.981Z,2
2019-01-12T14:21:39.020Z,2
2019-01-12T14:22:41.067Z,2
2019-01-12T14:23:43.119Z,3
2019-01-12T14:24:45.207Z,2
2019-01-12T14:25:47.265Z,2
2019-01-12T14:26:49.318Z,3
2019-01-12T14:27:56.643Z,3
2019-01-12T14:28:58.698Z,2
2019-01-12T14:30:00.882Z,2
2019-01-12T14:31:03.530Z,2
2019-01-12T14:32:05.602Z,2
2019-01-12T14:33:07.658Z,2
2019-01-12T14:34:09.761Z,2
2019-01-12T14:35:11.810Z,2
2019-01-12T14:36:13.849Z,2
2019-01-12T14:37:16.164Z,1
2019-01-12T14:38:18.508Z,2
2019-01-12T14:39:20.561Z,1
2019-01-12T14:40:22.616Z,1
2019-01-12T14:41:24.685Z,1
2019-01-12T14:42:27.115Z,1
2019-01-12T14:43:29.154Z,1
2019-01-12T14:44:31.239Z,1
2019-01-12T14:45:33.620Z,1
2019-01-12T14:46:35.692Z,2
2019-01-12T14:47:37.742Z,1
2019-01-12T14:48:39.775Z,1
2019-01-12T14:49:41.804Z,1
2019-01-12T14:50:43.845Z,1
2019-01-12T14:51:46.292Z,1
2019-01-12T14:52:48.366Z,2
2019-01-12T14:53:50.413Z,2
2019-01-12T14:54:52.463Z,2
2019-01-12T14:55:54.524Z,2
2019-01-12T14:56:56.857Z,2
2019-01-12T14:58:04.608Z,2
2019-01-12T14:59:07.421Z,1
2019-01-12T15:00:09.854Z,1
2019-01-12T15:01:11.984Z,1
2019-01-12T15:02:14.338Z,1
2019-01-12T15:03:16.457Z,1
2019-01-12T15:04:18.609Z,1
2019-01-12T15:05:21.014Z,1
2019-01-12T15:06:23.127Z,1
2019-01-12T15:07:25.289Z,1
2019-01-12T15:08:27.333Z,1
2019-01-12T15:09:29.379Z,0
2019-01-12T15:10:31.424Z,0
2019-01-12T15:11:33.471Z,0
2019-01-12T15:12:35.806Z,1
2019-01-12T15:13:37.848Z,1
2019-01-12T15:14:39.893Z,1
2019-01-12T15:15:41.941Z,1
2019-01-12T15:16:43.988Z,1
2019-01-12T15:17:46.383Z,0